sensor_id;sensor_type;location;lat;lon;timestamp;P1;durP1;ratioP1;P2;durP2;ratioP2
32228;SDS011;18717;48.034;11.186;2023-11-19T00:01:14;8.40;;;7.90;;
32228;SDS011;18717;48.034;11.186;2023-11-19T00:03:42;8.82;;;8.23;;
32228;SDS011;18717;48.034;11.186;2023-11-19T00:06:10;8.05;;;7.45;;
32228;SDS011;18717;48.034;11.186;2023-11-19T00:08:38;8.57;;;7.97;;
32228;SDS011;18717;48.034;11.186;2023-11-19T00:11:06;8.00;;;7.50;;
32228;SDS011;18717;48.034;11.186;2023-11-19T00:13:35;8.48;;;7.85;;
32228;SDS011;18717;48.034;11.186;2023-11-19T00:16:03;8.00;;;7.50;;
32228;SDS011;18717;48.034;11.186;2023-11-19T00:18:31;8.63;;;8.05;;
32228;SDS011;18717;48.034;11.186;2023-11-19T00:20:59;8.68;;;8.18;;
32228;SDS011;18717;48.034;11.186;2023-11-19T00:23:28;8.35;;;7.88;;
32228;SDS011;18717;48.034;11.186;2023-11-19T00:25:56;8.90;;;8.30;;
32228;SDS011;18717;48.034;11.186;2023-11-19T00:28:24;8.27;;;7.78;;
32228;SDS011;18717;48.034;11.186;2023-11-19T00:30:53;8.57;;;8.05;;
32228;SDS011;18717;48.034;11.186;2023-11-19T00:33:21;8.55;;;7.95;;
32228;SDS011;18717;48.034;11.186;2023-11-19T00:35:49;7.65;;;7.25;;
32228;SDS011;18717;48.034;11.186;2023-11-19T00:38:17;8.48;;;7.95;;
32228;SDS011;18717;48.034;11.186;2023-11-19T00:40:45;7.70;;;7.30;;
32228;SDS011;18717;48.034;11.186;2023-11-19T00:43:13;9.23;;;8.63;;
32228;SDS011;18717;48.034;11.186;2023-11-19T00:45:41;8.73;;;8.02;;
32228;SDS011;18717;48.034;11.186;2023-11-19T00:48:10;8.70;;;8.20;;
32228;SDS011;18717;48.034;11.186;2023-11-19T00:50:39;8.68;;;8.13;;
32228;SDS011;18717;48.034;11.186;2023-11-19T00:53:10;5.75;;;5.45;;
32228;SDS011;18717;48.034;11.186;2023-11-19T00:55:38;8.30;;;7.80;;
32228;SDS011;18717;48.034;11.186;2023-11-19T00:58:08;7.80;;;7.40;;
32228;SDS011;18717;48.034;11.186;2023-11-19T01:00:36;8.15;;;7.63;;
32228;SDS011;18717;48.034;11.186;2023-11-19T01:03:04;7.82;;;7.35;;
32228;SDS011;18717;48.034;11.186;2023-11-19T01:05:35;8.32;;;7.93;;
32228;SDS011;18717;48.034;11.186;2023-11-19T01:08:03;8.45;;;7.80;;
32228;SDS011;18717;48.034;11.186;2023-11-19T01:10:30;8.43;;;7.82;;
32228;SDS011;18717;48.034;11.186;2023-11-19T01:12:58;8.43;;;8.02;;
32228;SDS011;18717;48.034;11.186;2023-11-19T01:15:26;7.97;;;7.53;;
32228;SDS011;18717;48.034;11.186;2023-11-19T01:17:54;7.97;;;7.55;;
32228;SDS011;18717;48.034;11.186;2023-11-19T01:20:22;8.65;;;8.15;;
32228;SDS011;18717;48.034;11.186;2023-11-19T01:22:51;8.93;;;8.35;;
32228;SDS011;18717;48.034;11.186;2023-11-19T01:25:19;8.05;;;7.57;;
32228;SDS011;18717;48.034;11.186;2023-11-19T01:27:47;8.00;;;7.35;;
32228;SDS011;18717;48.034;11.186;2023-11-19T01:30:16;8.50;;;7.80;;
32228;SDS011;18717;48.034;11.186;2023-11-19T01:32:45;8.85;;;8.20;;
32228;SDS011;18717;48.034;11.186;2023-11-19T01:35:13;10.20;;;9.23;;
32228;SDS011;18717;48.034;11.186;2023-11-19T01:37:41;9.57;;;8.73;;
32228;SDS011;18717;48.034;11.186;2023-11-19T01:40:11;9.73;;;8.88;;
32228;SDS011;18717;48.034;11.186;2023-11-19T01:42:39;8.70;;;8.10;;
32228;SDS011;18717;48.034;11.186;2023-11-19T01:45:08;8.50;;;7.97;;
32228;SDS011;18717;48.034;11.186;2023-11-19T01:47:37;9.20;;;8.50;;
32228;SDS011;18717;48.034;11.186;2023-11-19T01:50:05;9.23;;;8.45;;
32228;SDS011;18717;48.034;11.186;2023-11-19T01:52:34;10.02;;;9.07;;
32228;SDS011;18717;48.034;11.186;2023-11-19T01:55:04;8.90;;;8.30;;
32228;SDS011;18717;48.034;11.186;2023-11-19T01:57:34;8.57;;;8.00;;
32228;SDS011;18717;48.034;11.186;2023-11-19T02:00:04;9.60;;;8.88;;
32228;SDS011;18717;48.034;11.186;2023-11-19T02:02:37;9.20;;;8.55;;
32228;SDS011;18717;48.034;11.186;2023-11-19T02:05:06;8.65;;;8.15;;
32228;SDS011;18717;48.034;11.186;2023-11-19T02:07:34;8.68;;;8.07;;
32228;SDS011;18717;48.034;11.186;2023-11-19T02:10:02;9.00;;;8.43;;
32228;SDS011;18717;48.034;11.186;2023-11-19T02:12:31;8.38;;;7.82;;
32228;SDS011;18717;48.034;11.186;2023-11-19T02:15:02;7.72;;;7.32;;
32228;SDS011;18717;48.034;11.186;2023-11-19T02:17:30;7.97;;;7.57;;
32228;SDS011;18717;48.034;11.186;2023-11-19T02:19:58;8.13;;;7.70;;
32228;SDS011;18717;48.034;11.186;2023-11-19T02:22:26;8.48;;;7.78;;
32228;SDS011;18717;48.034;11.186;2023-11-19T02:24:54;7.70;;;7.30;;
32228;SDS011;18717;48.034;11.186;2023-11-19T02:27:29;8.25;;;7.75;;
32228;SDS011;18717;48.034;11.186;2023-11-19T02:30:07;7.75;;;7.20;;
32228;SDS011;18717;48.034;11.186;2023-11-19T02:32:36;8.45;;;7.95;;
32228;SDS011;18717;48.034;11.186;2023-11-19T02:35:07;8.18;;;7.78;;
32228;SDS011;18717;48.034;11.186;2023-11-19T02:37:35;8.10;;;7.40;;
32228;SDS011;18717;48.034;11.186;2023-11-19T02:40:04;8.27;;;7.88;;
32228;SDS011;18717;48.034;11.186;2023-11-19T02:42:35;8.55;;;8.05;;
32228;SDS011;18717;48.034;11.186;2023-11-19T02:45:05;8.40;;;8.00;;
32228;SDS011;18717;48.034;11.186;2023-11-19T02:47:33;8.48;;;7.97;;
32228;SDS011;18717;48.034;11.186;2023-11-19T02:50:02;8.10;;;7.70;;
32228;SDS011;18717;48.034;11.186;2023-11-19T02:52:33;8.65;;;8.18;;
32228;SDS011;18717;48.034;11.186;2023-11-19T02:55:04;8.20;;;7.80;;
32228;SDS011;18717;48.034;11.186;2023-11-19T02:57:35;8.23;;;7.82;;
32228;SDS011;18717;48.034;11.186;2023-11-19T03:00:05;8.13;;;7.75;;
32228;SDS011;18717;48.034;11.186;2023-11-19T03:02:39;8.02;;;7.43;;
32228;SDS011;18717;48.034;11.186;2023-11-19T03:05:11;7.82;;;7.43;;
32228;SDS011;18717;48.034;11.186;2023-11-19T03:07:41;7.40;;;7.10;;
32228;SDS011;18717;48.034;11.186;2023-11-19T03:10:10;7.68;;;7.20;;
32228;SDS011;18717;48.034;11.186;2023-11-19T03:12:40;7.70;;;7.40;;
32228;SDS011;18717;48.034;11.186;2023-11-19T03:15:09;8.07;;;7.47;;
32228;SDS011;18717;48.034;11.186;2023-11-19T03:17:38;7.57;;;7.28;;
32228;SDS011;18717;48.034;11.186;2023-11-19T03:20:06;7.85;;;7.45;;
32228;SDS011;18717;48.034;11.186;2023-11-19T03:22:36;7.47;;;7.18;;
32228;SDS011;18717;48.034;11.186;2023-11-19T03:25:04;7.72;;;7.43;;
32228;SDS011;18717;48.034;11.186;2023-11-19T03:27:34;7.97;;;7.65;;
32228;SDS011;18717;48.034;11.186;2023-11-19T03:30:03;7.53;;;7.22;;
32228;SDS011;18717;48.034;11.186;2023-11-19T03:32:32;7.68;;;7.38;;
32228;SDS011;18717;48.034;11.186;2023-11-19T03:35:02;7.63;;;7.30;;
32228;SDS011;18717;48.034;11.186;2023-11-19T03:37:30;7.80;;;7.40;;
32228;SDS011;18717;48.034;11.186;2023-11-19T03:39:59;7.38;;;7.07;;
32228;SDS011;18717;48.034;11.186;2023-11-19T03:42:28;8.00;;;7.60;;
32228;SDS011;18717;48.034;11.186;2023-11-19T03:44:57;7.68;;;7.28;;
32228;SDS011;18717;48.034;11.186;2023-11-19T03:47:25;7.93;;;7.63;;
32228;SDS011;18717;48.034;11.186;2023-11-19T03:49:54;8.48;;;7.97;;
32228;SDS011;18717;48.034;11.186;2023-11-19T03:52:22;7.60;;;7.20;;
32228;SDS011;18717;48.034;11.186;2023-11-19T03:54:50;8.05;;;7.75;;
32228;SDS011;18717;48.034;11.186;2023-11-19T03:57:17;7.63;;;7.22;;
32228;SDS011;18717;48.034;11.186;2023-11-19T03:59:45;8.40;;;8.00;;
32228;SDS011;18717;48.034;11.186;2023-11-19T04:02:13;8.13;;;7.82;;
32228;SDS011;18717;48.034;11.186;2023-11-19T04:04:41;8.20;;;7.47;;
32228;SDS011;18717;48.034;11.186;2023-11-19T04:07:10;8.02;;;7.72;;
32228;SDS011;18717;48.034;11.186;2023-11-19T04:09:38;8.10;;;7.80;;
32228;SDS011;18717;48.034;11.186;2023-11-19T04:12:06;7.88;;;7.57;;
32228;SDS011;18717;48.034;11.186;2023-11-19T04:14:34;7.90;;;7.60;;
32228;SDS011;18717;48.034;11.186;2023-11-19T04:17:03;8.25;;;7.78;;
32228;SDS011;18717;48.034;11.186;2023-11-19T04:19:31;8.15;;;7.75;;
32228;SDS011;18717;48.034;11.186;2023-11-19T04:21:59;7.95;;;7.45;;
32228;SDS011;18717;48.034;11.186;2023-11-19T04:24:28;7.90;;;7.60;;
32228;SDS011;18717;48.034;11.186;2023-11-19T04:26:56;8.35;;;7.95;;
32228;SDS011;18717;48.034;11.186;2023-11-19T04:29:24;8.52;;;8.13;;
32228;SDS011;18717;48.034;11.186;2023-11-19T04:31:52;8.00;;;7.70;;
32228;SDS011;18717;48.034;11.186;2023-11-19T04:34:19;7.95;;;7.55;;
32228;SDS011;18717;48.034;11.186;2023-11-19T04:36:47;8.23;;;7.90;;
32228;SDS011;18717;48.034;11.186;2023-11-19T04:39:15;8.23;;;7.88;;
32228;SDS011;18717;48.034;11.186;2023-11-19T04:41:49;7.78;;;7.47;;
32228;SDS011;18717;48.034;11.186;2023-11-19T04:44:18;8.30;;;7.90;;
32228;SDS011;18717;48.034;11.186;2023-11-19T04:46:46;9.25;;;8.55;;
32228;SDS011;18717;48.034;11.186;2023-11-19T04:49:14;8.20;;;7.82;;
32228;SDS011;18717;48.034;11.186;2023-11-19T04:51:44;7.75;;;7.45;;
32228;SDS011;18717;48.034;11.186;2023-11-19T04:54:13;8.02;;;7.53;;
32228;SDS011;18717;48.034;11.186;2023-11-19T04:56:44;8.00;;;7.70;;
32228;SDS011;18717;48.034;11.186;2023-11-19T04:59:14;8.23;;;7.93;;
32228;SDS011;18717;48.034;11.186;2023-11-19T05:01:46;8.38;;;7.97;;
32228;SDS011;18717;48.034;11.186;2023-11-19T05:04:14;8.15;;;7.70;;
32228;SDS011;18717;48.034;11.186;2023-11-19T05:06:42;7.75;;;7.35;;
32228;SDS011;18717;48.034;11.186;2023-11-19T05:09:10;8.82;;;8.38;;
32228;SDS011;18717;48.034;11.186;2023-11-19T05:11:39;7.68;;;7.38;;
32228;SDS011;18717;48.034;11.186;2023-11-19T05:14:10;8.52;;;8.23;;
32228;SDS011;18717;48.034;11.186;2023-11-19T05:16:40;8.25;;;7.85;;
32228;SDS011;18717;48.034;11.186;2023-11-19T05:19:09;8.18;;;7.88;;
32228;SDS011;18717;48.034;11.186;2023-11-19T05:21:37;9.05;;;8.55;;
32228;SDS011;18717;48.034;11.186;2023-11-19T05:24:05;8.60;;;8.20;;
32228;SDS011;18717;48.034;11.186;2023-11-19T05:26:33;7.70;;;7.40;;
32228;SDS011;18717;48.034;11.186;2023-11-19T05:29:01;8.23;;;7.88;;
32228;SDS011;18717;48.034;11.186;2023-11-19T05:31:28;7.68;;;7.38;;
32228;SDS011;18717;48.034;11.186;2023-11-19T05:34:02;8.18;;;7.88;;
32228;SDS011;18717;48.034;11.186;2023-11-19T05:36:30;7.88;;;7.57;;
32228;SDS011;18717;48.034;11.186;2023-11-19T05:38:59;7.75;;;7.45;;
32228;SDS011;18717;48.034;11.186;2023-11-19T05:41:27;8.45;;;8.05;;
32228;SDS011;18717;48.034;11.186;2023-11-19T05:43:55;7.65;;;7.35;;
32228;SDS011;18717;48.034;11.186;2023-11-19T05:46:22;8.45;;;7.93;;
32228;SDS011;18717;48.034;11.186;2023-11-19T05:48:52;7.90;;;7.60;;
32228;SDS011;18717;48.034;11.186;2023-11-19T05:51:21;7.55;;;7.25;;
32228;SDS011;18717;48.034;11.186;2023-11-19T05:53:50;7.70;;;7.40;;
32228;SDS011;18717;48.034;11.186;2023-11-19T05:56:18;8.48;;;8.07;;
32228;SDS011;18717;48.034;11.186;2023-11-19T05:58:48;8.70;;;8.40;;
32228;SDS011;18717;48.034;11.186;2023-11-19T06:01:16;8.10;;;7.80;;
32228;SDS011;18717;48.034;11.186;2023-11-19T06:03:44;8.25;;;7.93;;
32228;SDS011;18717;48.034;11.186;2023-11-19T06:06:16;8.52;;;8.02;;
32228;SDS011;18717;48.034;11.186;2023-11-19T06:08:45;8.27;;;7.97;;
32228;SDS011;18717;48.034;11.186;2023-11-19T06:11:13;8.55;;;8.15;;
32228;SDS011;18717;48.034;11.186;2023-11-19T06:13:45;8.00;;;7.70;;
32228;SDS011;18717;48.034;11.186;2023-11-19T06:16:13;8.85;;;8.45;;
32228;SDS011;18717;48.034;11.186;2023-11-19T06:18:41;7.80;;;7.50;;
32228;SDS011;18717;48.034;11.186;2023-11-19T06:21:10;8.07;;;7.78;;
32228;SDS011;18717;48.034;11.186;2023-11-19T06:23:38;8.07;;;7.78;;
32228;SDS011;18717;48.034;11.186;2023-11-19T06:26:07;8.00;;;7.70;;
32228;SDS011;18717;48.034;11.186;2023-11-19T06:28:35;7.97;;;7.68;;
32228;SDS011;18717;48.034;11.186;2023-11-19T06:31:03;8.45;;;8.15;;
32228;SDS011;18717;48.034;11.186;2023-11-19T06:33:32;8.27;;;7.97;;
32228;SDS011;18717;48.034;11.186;2023-11-19T06:36:00;8.20;;;7.90;;
32228;SDS011;18717;48.034;11.186;2023-11-19T06:38:27;8.80;;;8.20;;
32228;SDS011;18717;48.034;11.186;2023-11-19T06:40:55;7.93;;;7.60;;
32228;SDS011;18717;48.034;11.186;2023-11-19T06:43:24;8.07;;;7.78;;
32228;SDS011;18717;48.034;11.186;2023-11-19T06:45:53;8.52;;;8.23;;
32228;SDS011;18717;48.034;11.186;2023-11-19T06:48:20;8.82;;;8.07;;
32228;SDS011;18717;48.034;11.186;2023-11-19T06:50:48;8.60;;;8.30;;
32228;SDS011;18717;48.034;11.186;2023-11-19T06:53:16;8.63;;;8.27;;
32228;SDS011;18717;48.034;11.186;2023-11-19T06:55:44;8.38;;;8.07;;
32228;SDS011;18717;48.034;11.186;2023-11-19T06:58:11;8.52;;;8.13;;
32228;SDS011;18717;48.034;11.186;2023-11-19T07:00:41;8.40;;;8.10;;
32228;SDS011;18717;48.034;11.186;2023-11-19T07:03:08;7.88;;;7.57;;
32228;SDS011;18717;48.034;11.186;2023-11-19T07:05:36;8.00;;;7.60;;
32228;SDS011;18717;48.034;11.186;2023-11-19T07:08:05;7.80;;;7.50;;
32228;SDS011;18717;48.034;11.186;2023-11-19T07:10:34;7.80;;;7.40;;
32228;SDS011;18717;48.034;11.186;2023-11-19T07:13:02;8.27;;;7.88;;
32228;SDS011;18717;48.034;11.186;2023-11-19T07:15:32;8.00;;;7.70;;
32228;SDS011;18717;48.034;11.186;2023-11-19T07:18:01;8.00;;;7.70;;
32228;SDS011;18717;48.034;11.186;2023-11-19T07:20:30;8.30;;;8.00;;
32228;SDS011;18717;48.034;11.186;2023-11-19T07:22:59;8.50;;;8.05;;
32228;SDS011;18717;48.034;11.186;2023-11-19T07:25:27;8.50;;;8.20;;
32228;SDS011;18717;48.034;11.186;2023-11-19T07:27:54;8.50;;;8.20;;
32228;SDS011;18717;48.034;11.186;2023-11-19T07:30:22;8.25;;;7.95;;
32228;SDS011;18717;48.034;11.186;2023-11-19T07:32:50;9.10;;;8.70;;
32228;SDS011;18717;48.034;11.186;2023-11-19T07:35:19;9.07;;;8.68;;
32228;SDS011;18717;48.034;11.186;2023-11-19T07:37:47;8.25;;;7.88;;
32228;SDS011;18717;48.034;11.186;2023-11-19T07:40:16;8.57;;;8.27;;
32228;SDS011;18717;48.034;11.186;2023-11-19T07:42:45;8.98;;;8.35;;
32228;SDS011;18717;48.034;11.186;2023-11-19T07:45:13;8.40;;;8.10;;
32228;SDS011;18717;48.034;11.186;2023-11-19T07:47:40;8.15;;;7.85;;
32228;SDS011;18717;48.034;11.186;2023-11-19T07:50:11;8.25;;;7.95;;
32228;SDS011;18717;48.034;11.186;2023-11-19T07:52:41;8.20;;;7.80;;
32228;SDS011;18717;48.034;11.186;2023-11-19T07:55:09;7.82;;;7.53;;
32228;SDS011;18717;48.034;11.186;2023-11-19T07:57:37;8.10;;;7.75;;
32228;SDS011;18717;48.034;11.186;2023-11-19T08:00:05;8.20;;;7.90;;
32228;SDS011;18717;48.034;11.186;2023-11-19T08:02:38;8.70;;;8.38;;
32228;SDS011;18717;48.034;11.186;2023-11-19T08:05:07;8.40;;;8.10;;
32228;SDS011;18717;48.034;11.186;2023-11-19T08:07:35;9.48;;;8.88;;
32228;SDS011;18717;48.034;11.186;2023-11-19T08:10:04;10.00;;;9.48;;
32228;SDS011;18717;48.034;11.186;2023-11-19T08:12:36;8.68;;;8.27;;
32228;SDS011;18717;48.034;11.186;2023-11-19T08:15:04;9.43;;;9.00;;
32228;SDS011;18717;48.034;11.186;2023-11-19T08:17:33;9.10;;;8.70;;
32228;SDS011;18717;48.034;11.186;2023-11-19T08:20:01;8.68;;;8.27;;
32228;SDS011;18717;48.034;11.186;2023-11-19T08:22:29;8.93;;;8.52;;
32228;SDS011;18717;48.034;11.186;2023-11-19T08:24:57;8.93;;;8.63;;
32228;SDS011;18717;48.034;11.186;2023-11-19T08:27:26;9.15;;;8.75;;
32228;SDS011;18717;48.034;11.186;2023-11-19T08:29:54;8.85;;;8.48;;
32228;SDS011;18717;48.034;11.186;2023-11-19T08:32:23;8.82;;;8.43;;
32228;SDS011;18717;48.034;11.186;2023-11-19T08:34:50;9.07;;;8.68;;
32228;SDS011;18717;48.034;11.186;2023-11-19T08:37:18;8.68;;;8.38;;
32228;SDS011;18717;48.034;11.186;2023-11-19T08:39:47;8.93;;;8.52;;
32228;SDS011;18717;48.034;11.186;2023-11-19T08:42:15;8.65;;;8.35;;
32228;SDS011;18717;48.034;11.186;2023-11-19T08:44:44;9.15;;;8.75;;
32228;SDS011;18717;48.034;11.186;2023-11-19T08:47:16;8.77;;;8.45;;
32228;SDS011;18717;48.034;11.186;2023-11-19T08:49:45;8.63;;;8.13;;
32228;SDS011;18717;48.034;11.186;2023-11-19T08:52:29;8.65;;;8.35;;
32228;SDS011;18717;48.034;11.186;2023-11-19T08:55:00;9.03;;;8.67;;
32228;SDS011;18717;48.034;11.186;2023-11-19T08:57:28;9.02;;;8.65;;
32228;SDS011;18717;48.034;11.186;2023-11-19T08:59:57;9.13;;;8.63;;
32228;SDS011;18717;48.034;11.186;2023-11-19T09:02:26;8.68;;;8.38;;
32228;SDS011;18717;48.034;11.186;2023-11-19T09:04:54;8.98;;;8.65;;
32228;SDS011;18717;48.034;11.186;2023-11-19T09:07:22;9.18;;;8.63;;
32228;SDS011;18717;48.034;11.186;2023-11-19T09:09:50;9.60;;;9.10;;
32228;SDS011;18717;48.034;11.186;2023-11-19T09:12:18;9.57;;;9.07;;
32228;SDS011;18717;48.034;11.186;2023-11-19T09:14:45;8.43;;;8.02;;
32228;SDS011;18717;48.034;11.186;2023-11-19T09:17:15;8.77;;;8.40;;
32228;SDS011;18717;48.034;11.186;2023-11-19T09:19:43;9.30;;;8.90;;
32228;SDS011;18717;48.034;11.186;2023-11-19T09:22:12;10.93;;;10.02;;
32228;SDS011;18717;48.034;11.186;2023-11-19T09:24:40;9.38;;;8.98;;
32228;SDS011;18717;48.034;11.186;2023-11-19T09:27:07;9.15;;;8.75;;
32228;SDS011;18717;48.034;11.186;2023-11-19T09:29:35;9.40;;;9.00;;
32228;SDS011;18717;48.034;11.186;2023-11-19T09:32:03;8.77;;;8.27;;
32228;SDS011;18717;48.034;11.186;2023-11-19T09:34:33;10.43;;;9.93;;
32228;SDS011;18717;48.034;11.186;2023-11-19T09:37:02;10.05;;;9.57;;
32228;SDS011;18717;48.034;11.186;2023-11-19T09:39:30;8.77;;;8.38;;
32228;SDS011;18717;48.034;11.186;2023-11-19T09:41:57;8.65;;;8.25;;
32228;SDS011;18717;48.034;11.186;2023-11-19T09:44:25;8.43;;;8.13;;
32228;SDS011;18717;48.034;11.186;2023-11-19T09:46:54;9.35;;;8.82;;
32228;SDS011;18717;48.034;11.186;2023-11-19T09:49:22;8.70;;;8.40;;
32228;SDS011;18717;48.034;11.186;2023-11-19T09:51:58;9.27;;;8.88;;
32228;SDS011;18717;48.034;11.186;2023-11-19T09:54:26;8.63;;;8.23;;
32228;SDS011;18717;48.034;11.186;2023-11-19T09:56:54;9.45;;;8.90;;
32228;SDS011;18717;48.034;11.186;2023-11-19T09:59:25;8.70;;;8.40;;
32228;SDS011;18717;48.034;11.186;2023-11-19T10:01:54;8.45;;;8.15;;
32228;SDS011;18717;48.034;11.186;2023-11-19T10:04:23;9.10;;;8.73;;
32228;SDS011;18717;48.034;11.186;2023-11-19T10:06:51;8.77;;;8.38;;
32228;SDS011;18717;48.034;11.186;2023-11-19T10:09:20;9.32;;;8.93;;
32228;SDS011;18717;48.034;11.186;2023-11-19T10:11:49;9.70;;;9.20;;
32228;SDS011;18717;48.034;11.186;2023-11-19T10:14:17;9.45;;;9.05;;
32228;SDS011;18717;48.034;11.186;2023-11-19T10:16:45;9.18;;;8.52;;
32228;SDS011;18717;48.034;11.186;2023-11-19T10:19:18;8.50;;;8.20;;
32228;SDS011;18717;48.034;11.186;2023-11-19T10:21:47;9.45;;;9.05;;
32228;SDS011;18717;48.034;11.186;2023-11-19T10:24:15;9.38;;;8.88;;
32228;SDS011;18717;48.034;11.186;2023-11-19T10:26:47;9.10;;;8.70;;
32228;SDS011;18717;48.034;11.186;2023-11-19T10:29:15;9.00;;;8.60;;
32228;SDS011;18717;48.034;11.186;2023-11-19T10:31:44;8.75;;;8.35;;
32228;SDS011;18717;48.034;11.186;2023-11-19T10:34:26;9.07;;;8.68;;
32228;SDS011;18717;48.034;11.186;2023-11-19T10:36:54;9.60;;;9.10;;
32228;SDS011;18717;48.034;11.186;2023-11-19T10:39:22;9.60;;;9.20;;
32228;SDS011;18717;48.034;11.186;2023-11-19T10:41:52;9.15;;;8.75;;
32228;SDS011;18717;48.034;11.186;2023-11-19T10:44:33;8.90;;;8.50;;
32228;SDS011;18717;48.034;11.186;2023-11-19T10:47:03;9.43;;;8.95;;
32228;SDS011;18717;48.034;11.186;2023-11-19T10:49:33;9.07;;;8.77;;
32228;SDS011;18717;48.034;11.186;2023-11-19T10:52:01;8.88;;;8.48;;
32228;SDS011;18717;48.034;11.186;2023-11-19T10:54:30;9.02;;;8.63;;
32228;SDS011;18717;48.034;11.186;2023-11-19T10:56:59;8.77;;;8.38;;
32228;SDS011;18717;48.034;11.186;2023-11-19T10:59:30;8.98;;;8.65;;
32228;SDS011;18717;48.034;11.186;2023-11-19T11:02:00;9.32;;;8.93;;
32228;SDS011;18717;48.034;11.186;2023-11-19T11:04:32;8.57;;;8.27;;
32228;SDS011;18717;48.034;11.186;2023-11-19T11:07:01;8.70;;;8.30;;
32228;SDS011;18717;48.034;11.186;2023-11-19T11:09:29;9.07;;;8.68;;
32228;SDS011;18717;48.034;11.186;2023-11-19T11:11:57;9.18;;;8.77;;
32228;SDS011;18717;48.034;11.186;2023-11-19T11:14:27;8.60;;;8.20;;
32228;SDS011;18717;48.034;11.186;2023-11-19T11:16:56;8.90;;;8.50;;
32228;SDS011;18717;48.034;11.186;2023-11-19T11:19:25;9.02;;;8.63;;
32228;SDS011;18717;48.034;11.186;2023-11-19T11:21:53;9.40;;;9.00;;
32228;SDS011;18717;48.034;11.186;2023-11-19T11:24:29;8.63;;;8.32;;
32228;SDS011;18717;48.034;11.186;2023-11-19T11:27:20;8.65;;;8.35;;
32228;SDS011;18717;48.034;11.186;2023-11-19T11:30:01;8.77;;;8.38;;
32228;SDS011;18717;48.034;11.186;2023-11-19T11:32:37;8.70;;;8.40;;
32228;SDS011;18717;48.034;11.186;2023-11-19T11:35:14;9.40;;;9.00;;
32228;SDS011;18717;48.034;11.186;2023-11-19T11:37:55;9.00;;;8.65;;
32228;SDS011;18717;48.034;11.186;2023-11-19T11:40:28;9.40;;;9.00;;
32228;SDS011;18717;48.034;11.186;2023-11-19T11:42:57;8.80;;;8.50;;
32228;SDS011;18717;48.034;11.186;2023-11-19T11:45:35;9.57;;;9.07;;
32228;SDS011;18717;48.034;11.186;2023-11-19T11:48:10;9.05;;;8.70;;
32228;SDS011;18717;48.034;11.186;2023-11-19T11:50:52;9.07;;;8.77;;
32228;SDS011;18717;48.034;11.186;2023-11-19T11:55:53;8.82;;;8.52;;
32228;SDS011;18717;48.034;11.186;2023-11-19T11:58:26;9.05;;;8.65;;
32228;SDS011;18717;48.034;11.186;2023-11-19T12:01:05;9.63;;;9.23;;
32228;SDS011;18717;48.034;11.186;2023-11-19T12:03:33;9.68;;;9.27;;
32228;SDS011;18717;48.034;11.186;2023-11-19T12:06:01;9.40;;;9.00;;
32228;SDS011;18717;48.034;11.186;2023-11-19T12:08:29;9.38;;;8.98;;
32228;SDS011;18717;48.034;11.186;2023-11-19T12:10:58;10.23;;;9.82;;
32228;SDS011;18717;48.034;11.186;2023-11-19T12:13:43;9.35;;;8.95;;
32228;SDS011;18717;48.034;11.186;2023-11-19T12:16:14;9.98;;;9.57;;
32228;SDS011;18717;48.034;11.186;2023-11-19T12:18:42;10.25;;;9.77;;
32228;SDS011;18717;48.034;11.186;2023-11-19T12:21:10;10.13;;;9.73;;
32228;SDS011;18717;48.034;11.186;2023-11-19T12:23:44;10.07;;;9.60;;
32228;SDS011;18717;48.034;11.186;2023-11-19T12:26:32;9.88;;;9.48;;
32228;SDS011;18717;48.034;11.186;2023-11-19T12:29:04;9.50;;;9.10;;
32228;SDS011;18717;48.034;11.186;2023-11-19T12:31:35;10.25;;;9.68;;
32228;SDS011;18717;48.034;11.186;2023-11-19T12:34:06;9.90;;;9.50;;
32228;SDS011;18717;48.034;11.186;2023-11-19T12:36:39;9.68;;;9.27;;
32228;SDS011;18717;48.034;11.186;2023-11-19T12:39:09;10.30;;;9.90;;
32228;SDS011;18717;48.034;11.186;2023-11-19T12:41:52;9.80;;;9.40;;
32228;SDS011;18717;48.034;11.186;2023-11-19T12:44:22;9.75;;;9.35;;
32228;SDS011;18717;48.034;11.186;2023-11-19T12:47:03;10.00;;;9.50;;
32228;SDS011;18717;48.034;11.186;2023-11-19T12:49:33;9.57;;;9.18;;
32228;SDS011;18717;48.034;11.186;2023-11-19T12:52:01;10.18;;;9.77;;
32228;SDS011;18717;48.034;11.186;2023-11-19T12:54:33;9.80;;;9.40;;
32228;SDS011;18717;48.034;11.186;2023-11-19T12:57:01;9.80;;;9.40;;
32228;SDS011;18717;48.034;11.186;2023-11-19T12:59:30;9.10;;;8.60;;
32228;SDS011;18717;48.034;11.186;2023-11-19T13:01:58;9.75;;;9.35;;
32228;SDS011;18717;48.034;11.186;2023-11-19T13:04:27;9.55;;;9.15;;
32228;SDS011;18717;48.034;11.186;2023-11-19T13:06:56;9.55;;;9.15;;
32228;SDS011;18717;48.034;11.186;2023-11-19T13:09:27;9.52;;;9.02;;
32228;SDS011;18717;48.034;11.186;2023-11-19T13:11:55;9.63;;;9.23;;
32228;SDS011;18717;48.034;11.186;2023-11-19T13:14:35;8.88;;;8.57;;
32228;SDS011;18717;48.034;11.186;2023-11-19T13:17:05;9.77;;;9.38;;
32228;SDS011;18717;48.034;11.186;2023-11-19T13:19:33;9.40;;;9.00;;
32228;SDS011;18717;48.034;11.186;2023-11-19T13:22:01;9.05;;;8.65;;
32228;SDS011;18717;48.034;11.186;2023-11-19T13:24:29;9.40;;;8.88;;
32228;SDS011;18717;48.034;11.186;2023-11-19T13:26:56;9.35;;;8.95;;
32228;SDS011;18717;48.034;11.186;2023-11-19T13:29:24;9.40;;;9.00;;
32228;SDS011;18717;48.034;11.186;2023-11-19T13:31:57;9.85;;;9.45;;
32228;SDS011;18717;48.034;11.186;2023-11-19T13:34:26;9.38;;;8.98;;
32228;SDS011;18717;48.034;11.186;2023-11-19T13:36:54;9.38;;;8.88;;
32228;SDS011;18717;48.034;11.186;2023-11-19T13:39:23;9.75;;;9.35;;
32228;SDS011;18717;48.034;11.186;2023-11-19T13:41:51;9.60;;;9.20;;
32228;SDS011;18717;48.034;11.186;2023-11-19T13:44:43;9.70;;;9.30;;
32228;SDS011;18717;48.034;11.186;2023-11-19T13:47:20;9.13;;;8.82;;
32228;SDS011;18717;48.034;11.186;2023-11-19T13:52:43;9.32;;;8.95;;
32228;SDS011;18717;48.034;11.186;2023-11-19T13:55:19;10.27;;;9.75;;
32228;SDS011;18717;48.034;11.186;2023-11-19T13:57:48;9.43;;;8.93;;
32228;SDS011;18717;48.034;11.186;2023-11-19T14:00:16;9.00;;;8.70;;
32228;SDS011;18717;48.034;11.186;2023-11-19T14:02:46;9.30;;;8.90;;
32228;SDS011;18717;48.034;11.186;2023-11-19T14:05:16;9.13;;;8.73;;
32228;SDS011;18717;48.034;11.186;2023-11-19T14:08:03;8.88;;;8.57;;
32228;SDS011;18717;48.034;11.186;2023-11-19T14:10:49;9.43;;;9.07;;
32228;SDS011;18717;48.034;11.186;2023-11-19T14:13:17;10.55;;;10.05;;
32228;SDS011;18717;48.034;11.186;2023-11-19T14:15:45;9.10;;;8.80;;
32228;SDS011;18717;48.034;11.186;2023-11-19T14:18:39;9.93;;;9.32;;
32228;SDS011;18717;48.034;11.186;2023-11-19T14:21:14;9.80;;;9.40;;
32228;SDS011;18717;48.034;11.186;2023-11-19T14:23:48;9.75;;;9.10;;
32228;SDS011;18717;48.034;11.186;2023-11-19T14:26:16;9.20;;;8.80;;
32228;SDS011;18717;48.034;11.186;2023-11-19T14:28:44;9.48;;;8.98;;
32228;SDS011;18717;48.034;11.186;2023-11-19T14:31:15;8.82;;;8.52;;
32228;SDS011;18717;48.034;11.186;2023-11-19T14:33:44;9.27;;;8.88;;
32228;SDS011;18717;48.034;11.186;2023-11-19T14:36:28;9.43;;;9.02;;
32228;SDS011;18717;48.034;11.186;2023-11-19T14:39:35;8.90;;;8.43;;
32228;SDS011;18717;48.034;11.186;2023-11-19T14:42:24;8.93;;;8.52;;
32228;SDS011;18717;48.034;11.186;2023-11-19T14:49:21;9.27;;;8.98;;
32228;SDS011;18717;48.034;11.186;2023-11-19T14:51:50;9.27;;;8.88;;
32228;SDS011;18717;48.034;11.186;2023-11-19T14:54:18;9.15;;;8.75;;
32228;SDS011;18717;48.034;11.186;2023-11-19T14:56:52;9.20;;;8.80;;
32228;SDS011;18717;48.034;11.186;2023-11-19T14:59:23;9.30;;;8.90;;